sensor_id;sensor_type;location;lat;lon;timestamp;pressure;altitude;pressure_sealevel;temperature;humidity
49611;BME280;35515;48.766;9.176;2023-04-28T00:00:12;98166.56;;;11.81;68.66
49611;BME280;35515;48.766;9.176;2023-04-28T00:02:39;98179.41;;;11.93;68.12
49611;BME280;35515;48.766;9.176;2023-04-28T00:05:06;98168.66;;;11.79;69.06
49611;BME280;35515;48.766;9.176;2023-04-28T00:07:33;98175.16;;;11.78;69.29
49611;BME280;35515;48.766;9.176;2023-04-28T00:10:00;98169.94;;;11.77;69.92
49611;BME280;35515;48.766;9.176;2023-04-28T00:12:26;98159.06;;;11.77;69.53
49611;BME280;35515;48.766;9.176;2023-04-28T00:14:54;98154.50;;;11.77;68.81
49611;BME280;35515;48.766;9.176;2023-04-28T00:17:21;98155.31;;;11.78;69.52
49611;BME280;35515;48.766;9.176;2023-04-28T00:19:47;98157.44;;;11.76;69.39
49611;BME280;35515;48.766;9.176;2023-04-28T00:22:15;98151.00;;;11.70;70.06
49611;BME280;35515;48.766;9.176;2023-04-28T00:24:41;98149.34;;;11.69;70.47
49611;BME280;35515;48.766;9.176;2023-04-28T00:27:08;98148.22;;;11.77;70.54
49611;BME280;35515;48.766;9.176;2023-04-28T00:29:34;98155.72;;;11.81;69.80
49611;BME280;35515;48.766;9.176;2023-04-28T00:32:02;98148.38;;;11.82;69.75
49611;BME280;35515;48.766;9.176;2023-04-28T00:34:31;98152.72;;;11.90;69.29
49611;BME280;35515;48.766;9.176;2023-04-28T00:36:58;98150.63;;;11.92;69.07
49611;BME280;35515;48.766;9.176;2023-04-28T00:39:25;98140.66;;;11.85;69.60
49611;BME280;35515;48.766;9.176;2023-04-28T00:41:52;98139.59;;;11.86;69.68
49611;BME280;35515;48.766;9.176;2023-04-28T00:44:18;98137.31;;;11.83;70.18
49611;BME280;35515;48.766;9.176;2023-04-28T00:46:45;98138.56;;;11.87;69.38
49611;BME280;35515;48.766;9.176;2023-04-28T00:49:14;98138.75;;;11.86;69.96
49611;BME280;35515;48.766;9.176;2023-04-28T00:51:41;98136.50;;;11.83;69.73
49611;BME280;35515;48.766;9.176;2023-04-28T00:54:08;98133.13;;;11.87;70.14
49611;BME280;35515;48.766;9.176;2023-04-28T00:56:38;98121.81;;;11.91;69.65
49611;BME280;35515;48.766;9.176;2023-04-28T00:59:04;98129.72;;;11.92;69.22
49611;BME280;35515;48.766;9.176;2023-04-28T01:01:31;98123.47;;;11.92;69.22
49611;BME280;35515;48.766;9.176;2023-04-28T01:03:58;98124.72;;;11.96;69.01
49611;BME280;35515;48.766;9.176;2023-04-28T01:06:26;98120.53;;;11.93;69.29
49611;BME280;35515;48.766;9.176;2023-04-28T01:08:54;98117.19;;;11.91;69.40
49611;BME280;35515;48.766;9.176;2023-04-28T01:11:21;98118.25;;;11.90;70.18
49611;BME280;35515;48.766;9.176;2023-04-28T01:13:47;98123.31;;;11.86;70.27
49611;BME280;35515;48.766;9.176;2023-04-28T01:16:14;98118.06;;;11.92;70.02
49611;BME280;35515;48.766;9.176;2023-04-28T01:18:42;98115.53;;;11.90;70.26
49611;BME280;35515;48.766;9.176;2023-04-28T01:21:11;98113.44;;;11.92;70.63
49611;BME280;35515;48.766;9.176;2023-04-28T01:23:39;98104.06;;;11.95;70.21
49611;BME280;35515;48.766;9.176;2023-04-28T01:26:07;98099.22;;;11.97;70.13
49611;BME280;35515;48.766;9.176;2023-04-28T01:28:34;98099.75;;;12.06;69.28
49611;BME280;35515;48.766;9.176;2023-04-28T01:31:00;98101.59;;;12.12;69.09
49611;BME280;35515;48.766;9.176;2023-04-28T01:33:27;98098.94;;;12.05;69.49
49611;BME280;35515;48.766;9.176;2023-04-28T01:35:56;98089.59;;;12.01;69.75
49611;BME280;35515;48.766;9.176;2023-04-28T01:38:22;98096.22;;;12.05;69.14
49611;BME280;35515;48.766;9.176;2023-04-28T01:40:49;98083.53;;;11.99;69.95
49611;BME280;35515;48.766;9.176;2023-04-28T01:43:17;98083.78;;;11.97;69.46
49611;BME280;35515;48.766;9.176;2023-04-28T01:45:44;98082.53;;;11.93;69.80
49611;BME280;35515;48.766;9.176;2023-04-28T01:48:10;98091.28;;;11.95;70.40
49611;BME280;35515;48.766;9.176;2023-04-28T01:50:37;98082.94;;;11.97;69.89
49611;BME280;35515;48.766;9.176;2023-04-28T01:53:03;98083.78;;;11.97;70.16
49611;BME280;35515;48.766;9.176;2023-04-28T01:58:35;98073.72;;;11.98;69.95
49611;BME280;35515;48.766;9.176;2023-04-28T02:01:01;98074.59;;;11.98;69.90
49611;BME280;35515;48.766;9.176;2023-04-28T02:03:28;98069.50;;;12.02;69.93
49611;BME280;35515;48.766;9.176;2023-04-28T02:05:54;98071.19;;;12.03;69.67
49611;BME280;35515;48.766;9.176;2023-04-28T02:08:21;98068.69;;;12.01;70.11
49611;BME280;35515;48.766;9.176;2023-04-28T02:10:47;98065.34;;;11.99;70.42
49611;BME280;35515;48.766;9.176;2023-04-28T02:13:14;98051.19;;;11.97;70.71
49611;BME280;35515;48.766;9.176;2023-04-28T02:15:42;98049.91;;;12.00;70.35
49611;BME280;35515;48.766;9.176;2023-04-28T02:18:09;98042.59;;;12.00;70.88
49611;BME280;35515;48.766;9.176;2023-04-28T02:20:36;98044.91;;;11.97;70.94
49611;BME280;35515;48.766;9.176;2023-04-28T02:23:02;98056.09;;;12.07;70.02
49611;BME280;35515;48.766;9.176;2023-04-28T02:25:29;98062.56;;;12.06;70.34
49611;BME280;35515;48.766;9.176;2023-04-28T02:27:55;98066.88;;;12.14;70.15
49611;BME280;35515;48.766;9.176;2023-04-28T02:30:23;98060.94;;;12.05;70.10
49611;BME280;35515;48.766;9.176;2023-04-28T02:32:51;98050.28;;;12.03;70.50
49611;BME280;35515;48.766;9.176;2023-04-28T02:35:18;98047.78;;;12.02;70.45
49611;BME280;35515;48.766;9.176;2023-04-28T02:37:44;98032.13;;;12.04;70.09
49611;BME280;35515;48.766;9.176;2023-04-28T02:40:12;98032.34;;;12.02;70.80
49611;BME280;35515;48.766;9.176;2023-04-28T02:42:38;98026.69;;;12.04;71.38
49611;BME280;35515;48.766;9.176;2023-04-28T02:45:06;98037.31;;;12.06;71.00
49611;BME280;35515;48.766;9.176;2023-04-28T02:47:32;98042.53;;;12.07;70.53
49611;BME280;35515;48.766;9.176;2023-04-28T02:50:00;98040.66;;;12.08;71.04
49611;BME280;35515;48.766;9.176;2023-04-28T02:52:27;98039.81;;;12.07;70.68
49611;BME280;35515;48.766;9.176;2023-04-28T02:54:53;98051.06;;;12.11;71.33
49611;BME280;35515;48.766;9.176;2023-04-28T02:57:21;98036.44;;;12.12;71.71
49611;BME280;35515;48.766;9.176;2023-04-28T02:59:48;98050.97;;;12.17;72.49
49611;BME280;35515;48.766;9.176;2023-04-28T03:02:15;98059.72;;;12.19;72.64
49611;BME280;35515;48.766;9.176;2023-04-28T03:04:41;98060.88;;;12.12;74.36
49611;BME280;35515;48.766;9.176;2023-04-28T03:07:09;98052.66;;;12.18;74.06
49611;BME280;35515;48.766;9.176;2023-04-28T03:09:36;98055.34;;;12.18;74.42
49611;BME280;35515;48.766;9.176;2023-04-28T03:12:02;98048.72;;;12.14;75.09
49611;BME280;35515;48.766;9.176;2023-04-28T03:14:29;98042.09;;;12.10;75.18
49611;BME280;35515;48.766;9.176;2023-04-28T03:16:56;98039.22;;;12.05;78.21
49611;BME280;35515;48.766;9.176;2023-04-28T03:19:22;98048.41;;;12.04;78.59
49611;BME280;35515;48.766;9.176;2023-04-28T03:21:49;98051.59;;;12.01;77.39
49611;BME280;35515;48.766;9.176;2023-04-28T03:24:16;98048.63;;;12.02;77.58
49611;BME280;35515;48.766;9.176;2023-04-28T03:26:43;98042.00;;;11.98;77.74
49611;BME280;35515;48.766;9.176;2023-04-28T03:29:10;98040.56;;;11.96;78.33
49611;BME280;35515;48.766;9.176;2023-04-28T03:31:36;98059.97;;;11.93;78.92
49611;BME280;35515;48.766;9.176;2023-04-28T03:34:03;98037.66;;;11.91;79.17
49611;BME280;35515;48.766;9.176;2023-04-28T03:36:30;98028.25;;;11.93;79.40
49611;BME280;35515;48.766;9.176;2023-04-28T03:38:57;98040.09;;;11.99;79.31
49611;BME280;35515;48.766;9.176;2023-04-28T03:41:25;98039.13;;;12.12;78.82
49611;BME280;35515;48.766;9.176;2023-04-28T03:43:51;98047.78;;;12.02;80.79
49611;BME280;35515;48.766;9.176;2023-04-28T03:46:18;98033.84;;;11.98;82.97
49611;BME280;35515;48.766;9.176;2023-04-28T03:48:45;98045.53;;;11.99;81.82
49611;BME280;35515;48.766;9.176;2023-04-28T03:51:11;98045.34;;;11.94;84.17
49611;BME280;35515;48.766;9.176;2023-04-28T03:53:38;98027.94;;;11.83;83.66
49611;BME280;35515;48.766;9.176;2023-04-28T03:56:05;98028.91;;;11.88;84.78
49611;BME280;35515;48.766;9.176;2023-04-28T03:58:33;98028.25;;;11.93;83.87
49611;BME280;35515;48.766;9.176;2023-04-28T04:00:59;98022.19;;;11.91;84.76
49611;BME280;35515;48.766;9.176;2023-04-28T04:03:26;98028.47;;;11.92;85.34
49611;BME280;35515;48.766;9.176;2023-04-28T04:05:52;98023.47;;;11.88;84.91
49611;BME280;35515;48.766;9.176;2023-04-28T04:08:20;98017.19;;;11.95;83.89
49611;BME280;35515;48.766;9.176;2023-04-28T04:10:46;98021.38;;;11.91;85.10
49611;BME280;35515;48.766;9.176;2023-04-28T04:13:13;98016.41;;;11.87;86.59
49611;BME280;35515;48.766;9.176;2023-04-28T04:15:41;98016.84;;;11.84;86.30
49611;BME280;35515;48.766;9.176;2023-04-28T04:18:07;98012.47;;;11.83;86.59
49611;BME280;35515;48.766;9.176;2023-04-28T04:20:33;98019.72;;;11.90;86.53
49611;BME280;35515;48.766;9.176;2023-04-28T04:23:00;98019.13;;;11.87;86.98
49611;BME280;35515;48.766;9.176;2023-04-28T04:25:27;98013.53;;;11.82;88.39
49611;BME280;35515;48.766;9.176;2023-04-28T04:27:54;98004.47;;;11.88;88.88
49611;BME280;35515;48.766;9.176;2023-04-28T04:30:21;98001.75;;;11.88;87.87
49611;BME280;35515;48.766;9.176;2023-04-28T04:32:48;97996.63;;;11.80;88.74
49611;BME280;35515;48.766;9.176;2023-04-28T04:35:15;98000.41;;;11.79;89.00
49611;BME280;35515;48.766;9.176;2023-04-28T04:37:41;98004.19;;;11.78;88.63
49611;BME280;35515;48.766;9.176;2023-04-28T04:40:09;98013.06;;;11.85;90.22
49611;BME280;35515;48.766;9.176;2023-04-28T04:42:35;98007.66;;;11.85;88.96
49611;BME280;35515;48.766;9.176;2023-04-28T04:45:02;98004.81;;;11.99;87.90
49611;BME280;35515;48.766;9.176;2023-04-28T04:47:29;98000.91;;;11.95;87.75
49611;BME280;35515;48.766;9.176;2023-04-28T04:49:57;98000.66;;;11.96;89.21
49611;BME280;35515;48.766;9.176;2023-04-28T04:52:24;98006.91;;;11.97;87.43
49611;BME280;35515;48.766;9.176;2023-04-28T04:54:50;98004.34;;;12.02;88.42
49611;BME280;35515;48.766;9.176;2023-04-28T04:57:17;98004.06;;;12.10;87.60
49611;BME280;35515;48.766;9.176;2023-04-28T04:59:43;97994.19;;;12.16;87.09
49611;BME280;35515;48.766;9.176;2023-04-28T05:02:11;97993.59;;;12.44;84.91
49611;BME280;35515;48.766;9.176;2023-04-28T05:04:37;97992.47;;;12.52;84.57
49611;BME280;35515;48.766;9.176;2023-04-28T05:07:05;97991.09;;;12.61;85.91
49611;BME280;35515;48.766;9.176;2023-04-28T05:09:32;97988.94;;;12.63;86.29
49611;BME280;35515;48.766;9.176;2023-04-28T05:11:59;97997.94;;;12.64;85.16
49611;BME280;35515;48.766;9.176;2023-04-28T05:14:25;97996.88;;;12.65;88.63
49611;BME280;35515;48.766;9.176;2023-04-28T05:16:52;98002.09;;;12.66;90.64
49611;BME280;35515;48.766;9.176;2023-04-28T05:19:18;97998.09;;;12.69;90.50
49611;BME280;35515;48.766;9.176;2023-04-28T05:21:45;97998.09;;;12.69;91.58
49611;BME280;35515;48.766;9.176;2023-04-28T05:24:14;98001.47;;;12.64;92.11
49611;BME280;35515;48.766;9.176;2023-04-28T05:26:40;98012.25;;;12.71;92.46
49611;BME280;35515;48.766;9.176;2023-04-28T05:29:07;98013.59;;;12.50;93.90
49611;BME280;35515;48.766;9.176;2023-04-28T05:31:33;98006.72;;;12.47;95.81
49611;BME280;35515;48.766;9.176;2023-04-28T05:34:00;98000.84;;;12.50;96.66
49611;BME280;35515;48.766;9.176;2023-04-28T05:36:26;97997.13;;;12.45;97.82
49611;BME280;35515;48.766;9.176;2023-04-28T05:38:53;98005.16;;;12.40;98.25
49611;BME280;35515;48.766;9.176;2023-04-28T05:41:21;98007.03;;;12.39;99.92
49611;BME280;35515;48.766;9.176;2023-04-28T05:43:47;98009.75;;;12.39;100.00
49611;BME280;35515;48.766;9.176;2023-04-28T05:46:15;98009.75;;;12.39;99.79
49611;BME280;35515;48.766;9.176;2023-04-28T05:48:44;98009.19;;;12.37;100.00
49611;BME280;35515;48.766;9.176;2023-04-28T05:51:10;97991.44;;;12.34;100.00
49611;BME280;35515;48.766;9.176;2023-04-28T05:53:37;98002.75;;;12.31;100.00
49611;BME280;35515;48.766;9.176;2023-04-28T05:56:04;98004.31;;;12.39;100.00
49611;BME280;35515;48.766;9.176;2023-04-28T05:58:32;98002.31;;;12.34;100.00
49611;BME280;35515;48.766;9.176;2023-04-28T06:00:59;97991.06;;;12.31;100.00
49611;BME280;35515;48.766;9.176;2023-04-28T06:03:26;97998.16;;;12.32;100.00
49611;BME280;35515;48.766;9.176;2023-04-28T06:05:52;97999.81;;;12.33;100.00
49611;BME280;35515;48.766;9.176;2023-04-28T06:08:19;97992.16;;;12.42;100.00
49611;BME280;35515;48.766;9.176;2023-04-28T06:10:45;97991.69;;;12.33;100.00
49611;BME280;35515;48.766;9.176;2023-04-28T06:13:12;97992.13;;;12.30;99.99
49611;BME280;35515;48.766;9.176;2023-04-28T06:15:40;97992.72;;;12.32;100.00
49611;BME280;35515;48.766;9.176;2023-04-28T06:18:06;97986.69;;;12.30;100.00
49611;BME280;35515;48.766;9.176;2023-04-28T06:20:34;97988.97;;;12.33;100.00
49611;BME280;35515;48.766;9.176;2023-04-28T06:23:00;97984.13;;;12.35;100.00
49611;BME280;35515;48.766;9.176;2023-04-28T06:25:28;97991.78;;;12.38;100.00
49611;BME280;35515;48.766;9.176;2023-04-28T06:27:54;97985.44;;;12.44;100.00
49611;BME280;35515;48.766;9.176;2023-04-28T06:30:21;97978.34;;;12.43;100.00
49611;BME280;35515;48.766;9.176;2023-04-28T06:32:50;97973.97;;;12.42;100.00
49611;BME280;35515;48.766;9.176;2023-04-28T06:35:17;97982.75;;;12.44;100.00
49611;BME280;35515;48.766;9.176;2023-04-28T06:37:43;97983.44;;;12.40;100.00
49611;BME280;35515;48.766;9.176;2023-04-28T06:40:10;97976.25;;;12.45;100.00
49611;BME280;35515;48.766;9.176;2023-04-28T06:42:37;97983.13;;;12.48;100.00
49611;BME280;35515;48.766;9.176;2023-04-28T06:45:04;97983.47;;;12.51;100.00
49611;BME280;35515;48.766;9.176;2023-04-28T06:47:30;97976.84;;;12.47;100.00
49611;BME280;35515;48.766;9.176;2023-04-28T06:49:59;97971.63;;;12.46;100.00
49611;BME280;35515;48.766;9.176;2023-04-28T06:52:26;97969.63;;;12.41;100.00
49611;BME280;35515;48.766;9.176;2023-04-28T06:54:54;97963.25;;;12.47;100.00
49611;BME280;35515;48.766;9.176;2023-04-28T06:57:20;97958.28;;;12.44;100.00
49611;BME280;35515;48.766;9.176;2023-04-28T06:59:47;97964.44;;;12.51;100.00
49611;BME280;35515;48.766;9.176;2023-04-28T07:02:13;97967.06;;;12.46;100.00
49611;BME280;35515;48.766;9.176;2023-04-28T07:04:40;97965.38;;;12.45;100.00
49611;BME280;35515;48.766;9.176;2023-04-28T07:07:08;97966.53;;;12.37;100.00
49611;BME280;35515;48.766;9.176;2023-04-28T07:09:34;97959.00;;;12.40;100.00
49611;BME280;35515;48.766;9.176;2023-04-28T07:12:01;97958.84;;;12.65;100.00
49611;BME280;35515;48.766;9.176;2023-04-28T07:14:28;97953.84;;;12.62;100.00
49611;BME280;35515;48.766;9.176;2023-04-28T07:16:54;97950.56;;;12.60;100.00
49611;BME280;35515;48.766;9.176;2023-04-28T07:19:21;97946.66;;;12.56;100.00
49611;BME280;35515;48.766;9.176;2023-04-28T07:21:48;97945.56;;;12.57;100.00
49611;BME280;35515;48.766;9.176;2023-04-28T07:24:16;97950.09;;;12.63;100.00
49611;BME280;35515;48.766;9.176;2023-04-28T07:26:42;97946.31;;;12.64;100.00
49611;BME280;35515;48.766;9.176;2023-04-28T07:29:09;97947.75;;;12.66;100.00
49611;BME280;35515;48.766;9.176;2023-04-28T07:31:37;97940.19;;;12.80;100.00
49611;BME280;35515;48.766;9.176;2023-04-28T07:34:04;97940.13;;;13.11;100.00
49611;BME280;35515;48.766;9.176;2023-04-28T07:36:30;97937.88;;;12.96;100.00
49611;BME280;35515;48.766;9.176;2023-04-28T07:38:58;97938.09;;;13.06;100.00
49611;BME280;35515;48.766;9.176;2023-04-28T07:41:27;97937.16;;;13.12;100.00
49611;BME280;35515;48.766;9.176;2023-04-28T07:43:54;97942.59;;;13.12;100.00
49611;BME280;35515;48.766;9.176;2023-04-28T07:46:20;97941.91;;;13.05;100.00
49611;BME280;35515;48.766;9.176;2023-04-28T07:48:47;97947.34;;;13.05;100.00
49611;BME280;35515;48.766;9.176;2023-04-28T07:51:14;97936.47;;;13.05;100.00
49611;BME280;35515;48.766;9.176;2023-04-28T07:53:41;97940.63;;;13.19;100.00
49611;BME280;35515;48.766;9.176;2023-04-28T07:56:07;97934.34;;;13.31;100.00
49611;BME280;35515;48.766;9.176;2023-04-28T07:58:35;97947.00;;;13.13;100.00
49611;BME280;35515;48.766;9.176;2023-04-28T08:01:02;97947.81;;;13.14;100.00
49611;BME280;35515;48.766;9.176;2023-04-28T08:03:28;97958.94;;;13.24;100.00
49611;BME280;35515;48.766;9.176;2023-04-28T08:05:55;97951.81;;;13.11;100.00
49611;BME280;35515;48.766;9.176;2023-04-28T08:08:21;97959.84;;;13.06;100.00
49611;BME280;35515;48.766;9.176;2023-04-28T08:10:48;97972.16;;;13.09;100.00
49611;BME280;35515;48.766;9.176;2023-04-28T08:13:15;97972.50;;;13.00;100.00
49611;BME280;35515;48.766;9.176;2023-04-28T08:15:43;97971.78;;;12.93;100.00
49611;BME280;35515;48.766;9.176;2023-04-28T08:18:09;97967.66;;;12.91;100.00
49611;BME280;35515;48.766;9.176;2023-04-28T08:20:36;97976.41;;;13.04;100.00
49611;BME280;35515;48.766;9.176;2023-04-28T08:23:02;97984.13;;;13.08;100.00
49611;BME280;35515;48.766;9.176;2023-04-28T08:25:29;97988.38;;;13.03;100.00
49611;BME280;35515;48.766;9.176;2023-04-28T08:27:56;97994.00;;;13.02;100.00
49611;BME280;35515;48.766;9.176;2023-04-28T08:30:23;97993.69;;;12.98;100.00
49611;BME280;35515;48.766;9.176;2023-04-28T08:32:51;97995.66;;;12.91;100.00
49611;BME280;35515;48.766;9.176;2023-04-28T08:35:18;98004.97;;;12.83;100.00
49611;BME280;35515;48.766;9.176;2023-04-28T08:37:44;98010.88;;;12.80;100.00
49611;BME280;35515;48.766;9.176;2023-04-28T08:40:13;98011.34;;;12.77;100.00
49611;BME280;35515;48.766;9.176;2023-04-28T08:42:40;98022.94;;;12.84;100.00
49611;BME280;35515;48.766;9.176;2023-04-28T08:45:12;98026.06;;;13.00;100.00
49611;BME280;35515;48.766;9.176;2023-04-28T08:47:39;98022.94;;;12.84;100.00
49611;BME280;35515;48.766;9.176;2023-04-28T08:50:12;98021.84;;;12.74;100.00
49611;BME280;35515;48.766;9.176;2023-04-28T08:52:41;98025.56;;;12.61;100.00
49611;BME280;35515;48.766;9.176;2023-04-28T08:55:09;98036.66;;;12.59;100.00
49611;BME280;35515;48.766;9.176;2023-04-28T08:57:38;98024.59;;;12.55;100.00
49611;BME280;35515;48.766;9.176;2023-04-28T09:00:09;98037.50;;;12.60;100.00
49611;BME280;35515;48.766;9.176;2023-04-28T09:02:36;98031.00;;;12.61;100.00
49611;BME280;35515;48.766;9.176;2023-04-28T09:05:06;98040.81;;;12.62;100.00
49611;BME280;35515;48.766;9.176;2023-04-28T09:07:34;98044.13;;;12.64;100.00
49611;BME280;35515;48.766;9.176;2023-04-28T09:10:18;98046.25;;;12.62;100.00
49611;BME280;35515;48.766;9.176;2023-04-28T09:12:45;98048.53;;;12.65;100.00
49611;BME280;35515;48.766;9.176;2023-04-28T09:15:24;98039.06;;;12.67;100.00
49611;BME280;35515;48.766;9.176;2023-04-28T09:17:52;98042.00;;;12.66;100.00
49611;BME280;35515;48.766;9.176;2023-04-28T09:20:19;98039.53;;;12.64;100.00
49611;BME280;35515;48.766;9.176;2023-04-28T09:22:48;98039.53;;;12.64;100.00
49611;BME280;35515;48.766;9.176;2023-04-28T09:25:16;98043.09;;;12.65;100.00
49611;BME280;35515;48.766;9.176;2023-04-28T09:27:42;98041.19;;;12.65;100.00
49611;BME280;35515;48.766;9.176;2023-04-28T09:30:10;98038.38;;;12.72;100.00
49611;BME280;35515;48.766;9.176;2023-04-28T09:32:36;98038.38;;;12.72;100.00
49611;BME280;35515;48.766;9.176;2023-04-28T09:35:03;98041.91;;;12.73;100.00
49611;BME280;35515;48.766;9.176;2023-04-28T09:37:32;98041.16;;;12.84;100.00
49611;BME280;35515;48.766;9.176;2023-04-28T09:40:05;98040.00;;;12.92;100.00
49611;BME280;35515;48.766;9.176;2023-04-28T09:42:34;98041.19;;;12.96;100.00
49611;BME280;35515;48.766;9.176;2023-04-28T09:45:02;98029.38;;;13.02;100.00
49611;BME280;35515;48.766;9.176;2023-04-28T09:47:29;98032.22;;;13.07;100.00
49611;BME280;35515;48.766;9.176;2023-04-28T09:49:57;98033.78;;;13.15;100.00
49611;BME280;35515;48.766;9.176;2023-04-28T09:52:24;98038.06;;;13.23;100.00
49611;BME280;35515;48.766;9.176;2023-04-28T09:54:52;98034.91;;;13.37;100.00
49611;BME280;35515;48.766;9.176;2023-04-28T09:57:20;98027.47;;;13.45;100.00
49611;BME280;35515;48.766;9.176;2023-04-28T09:59:48;98025.84;;;13.56;100.00
49611;BME280;35515;48.766;9.176;2023-04-28T10:02:16;98026.16;;;13.71;100.00
49611;BME280;35515;48.766;9.176;2023-04-28T10:04:44;98030.44;;;13.79;100.00
49611;BME280;35515;48.766;9.176;2023-04-28T10:07:11;98022.75;;;13.87;100.00
49611;BME280;35515;48.766;9.176;2023-04-28T10:09:38;98027.34;;;13.99;100.00
49611;BME280;35515;48.766;9.176;2023-04-28T10:12:08;98026.41;;;14.05;100.00
49611;BME280;35515;48.766;9.176;2023-04-28T10:14:36;98028.75;;;14.13;100.00
49611;BME280;35515;48.766;9.176;2023-04-28T10:17:03;98021.38;;;14.26;100.00
49611;BME280;35515;48.766;9.176;2023-04-28T10:19:31;98030.31;;;14.38;100.00
49611;BME280;35515;48.766;9.176;2023-04-28T10:22:13;98025.00;;;14.43;100.00
49611;BME280;35515;48.766;9.176;2023-04-28T10:24:58;98022.25;;;14.43;100.00
49611;BME280;35515;48.766;9.176;2023-04-28T10:27:32;98016.78;;;14.55;100.00
49611;BME280;35515;48.766;9.176;2023-04-28T10:30:12;98018.91;;;14.65;100.00
49611;BME280;35515;48.766;9.176;2023-04-28T10:32:40;98016.25;;;14.70;100.00
49611;BME280;35515;48.766;9.176;2023-04-28T10:35:41;98019.59;;;14.72;100.00
49611;BME280;35515;48.766;9.176;2023-04-28T10:38:11;98013.97;;;14.79;100.00
49611;BME280;35515;48.766;9.176;2023-04-28T10:40:38;98014.09;;;14.84;100.00
49611;BME280;35515;48.766;9.176;2023-04-28T10:43:06;98013.16;;;14.78;100.00
49611;BME280;35515;48.766;9.176;2023-04-28T10:46:05;98027.53;;;14.74;100.00
49611;BME280;35515;48.766;9.176;2023-04-28T10:49:05;98021.81;;;14.75;100.00
49611;BME280;35515;48.766;9.176;2023-04-28T10:51:33;98027.22;;;14.87;100.00
49611;BME280;35515;48.766;9.176;2023-04-28T10:54:12;98029.69;;;14.88;100.00
49611;BME280;35515;48.766;9.176;2023-04-28T10:56:41;98036.66;;;14.96;100.00
49611;BME280;35515;48.766;9.176;2023-04-28T10:59:27;98027.50;;;15.02;100.00
49611;BME280;35515;48.766;9.176;2023-04-28T11:05:11;98025.19;;;15.11;100.00
49611;BME280;35515;48.766;9.176;2023-04-28T11:07:37;98027.13;;;15.28;100.00
49611;BME280;35515;48.766;9.176;2023-04-28T11:10:05;98028.78;;;15.29;100.00
49611;BME280;35515;48.766;9.176;2023-04-28T11:12:32;98028.28;;;15.32;100.00
49611;BME280;35515;48.766;9.176;2023-04-28T11:15:10;98024.50;;;15.33;100.00
49611;BME280;35515;48.766;9.176;2023-04-28T11:17:40;98025.31;;;15.33;100.00
49611;BME280;35515;48.766;9.176;2023-04-28T11:20:11;98028.28;;;15.32;100.00
49611;BME280;35515;48.766;9.176;2023-04-28T11:22:39;98025.47;;;15.27;100.00
49611;BME280;35515;48.766;9.176;2023-04-28T11:25:07;98018.78;;;15.34;100.00
49611;BME280;35515;48.766;9.176;2023-04-28T11:27:33;98028.94;;;15.39;100.00
49611;BME280;35515;48.766;9.176;2023-04-28T11:30:00;98021.34;;;15.41;100.00
49611;BME280;35515;48.766;9.176;2023-04-28T11:32:27;98024.25;;;15.51;100.00
49611;BME280;35515;48.766;9.176;2023-04-28T11:34:56;98023.13;;;15.52;100.00
49611;BME280;35515;48.766;9.176;2023-04-28T11:37:22;98022.31;;;15.52;100.00
49611;BME280;35515;48.766;9.176;2023-04-28T11:39:49;98012.47;;;15.51;100.00
49611;BME280;35515;48.766;9.176;2023-04-28T11:42:16;98019.34;;;15.53;100.00
49611;BME280;35515;48.766;9.176;2023-04-28T11:44:49;98013.97;;;15.59;100.00
49611;BME280;35515;48.766;9.176;2023-04-28T11:47:27;98014.31;;;15.62;100.00
49611;BME280;35515;48.766;9.176;2023-04-28T11:49:55;98005.25;;;15.62;100.00
49611;BME280;35515;48.766;9.176;2023-04-28T11:52:22;97998.47;;;15.64;100.00
49611;BME280;35515;48.766;9.176;2023-04-28T11:54:52;97996.97;;;15.74;100.00
49611;BME280;35515;48.766;9.176;2023-04-28T11:57:20;98009.88;;;15.95;100.00
49611;BME280;35515;48.766;9.176;2023-04-28T11:59:47;97999.94;;;16.06;100.00
49611;BME280;35515;48.766;9.176;2023-04-28T12:02:14;98008.13;;;16.28;100.00
49611;BME280;35515;48.766;9.176;2023-04-28T12:04:42;98009.06;;;16.39;99.56
49611;BME280;35515;48.766;9.176;2023-04-28T12:07:11;98011.88;;;16.44;99.21
49611;BME280;35515;48.766;9.176;2023-04-28T12:09:40;98010.59;;;16.30;100.00
49611;BME280;35515;48.766;9.176;2023-04-28T12:12:08;98005.19;;;16.35;100.00
49611;BME280;35515;48.766;9.176;2023-04-28T12:14:53;98012.38;;;16.41;99.19
49611;BME280;35515;48.766;9.176;2023-04-28T12:17:24;98005.66;;;16.27;100.00
49611;BME280;35515;48.766;9.176;2023-04-28T12:19:51;98000.94;;;16.44;96.67
49611;BME280;35515;48.766;9.176;2023-04-28T12:22:19;98003.53;;;16.34;99.27
49611;BME280;35515;48.766;9.176;2023-04-28T12:24:46;97997.63;;;16.42;97.00
49611;BME280;35515;48.766;9.176;2023-04-28T12:27:27;97996.66;;;16.53;95.26
49611;BME280;35515;48.766;9.176;2023-04-28T12:29:54;97998.78;;;16.46;98.35
49611;BME280;35515;48.766;9.176;2023-04-28T12:32:36;97991.66;;;16.45;94.43
49611;BME280;35515;48.766;9.176;2023-04-28T12:35:04;98004.66;;;16.38;95.26
49611;BME280;35515;48.766;9.176;2023-04-28T12:37:35;98001.19;;;16.43;94.50
49611;BME280;35515;48.766;9.176;2023-04-28T12:40:04;98008.56;;;16.42;95.45
49611;BME280;35515;48.766;9.176;2023-04-28T12:42:31;97996.91;;;16.52;94.25
49611;BME280;35515;48.766;9.176;2023-04-28T12:44:57;98009.66;;;16.41;95.18
49611;BME280;35515;48.766;9.176;2023-04-28T12:47:24;98004.25;;;16.46;94.16
49611;BME280;35515;48.766;9.176;2023-04-28T12:49:51;97996.59;;;16.48;93.97
49611;BME280;35515;48.766;9.176;2023-04-28T12:52:18;97994.31;;;16.40;95.24
49611;BME280;35515;48.766;9.176;2023-04-28T12:54:46;98008.66;;;16.52;93.39
49611;BME280;35515;48.766;9.176;2023-04-28T12:57:12;98010.34;;;16.53;93.56
49611;BME280;35515;48.766;9.176;2023-04-28T12:59:41;98008.56;;;16.42;96.62
49611;BME280;35515;48.766;9.176;2023-04-28T13:02:08;98007.94;;;16.35;96.82
49611;BME280;35515;48.766;9.176;2023-04-28T13:04:35;98009.19;;;16.49;92.12